createdAt,value
2019-04-28T00:01:42.022Z,101026.19
2019-04-28T00:07:50.560Z,101028.40
2019-04-28T00:13:56.547Z,101029.27
2019-04-28T00:20:04.256Z,101030.16
2019-04-28T00:26:24.613Z,101036.31
2019-04-28T00:32:32.498Z,101034.09
2019-04-28T00:38:38.343Z,101023.55
2019-04-28T00:44:44.303Z,101025.32
2019-04-28T00:50:51.971Z,101020.47
2019-04-28T00:56:58.406Z,101025.75
2019-04-28T01:03:04.353Z,101027.94
2019-04-28T01:09:11.844Z,101032.78
2019-04-28T01:15:39.671Z,101028.84
2019-04-28T01:22:03.447Z,101027.51
2019-04-28T01:28:09.833Z,101023.55
2019-04-28T01:34:24.307Z,101023.55
2019-04-28T01:40:30.505Z,101027.94
2019-04-28T01:46:36.712Z,101026.19
2019-04-28T01:52:42.892Z,101023.12
2019-04-28T01:58:49.928Z,101031.02
2019-04-28T02:04:56.666Z,101036.27
2019-04-28T02:11:03.251Z,101031.88
2019-04-28T02:17:10.515Z,101038.44
2019-04-28T02:23:22.138Z,101044.15
2019-04-28T02:29:29.881Z,101041.52
2019-04-28T02:35:35.608Z,101048.92
2019-04-28T02:41:41.774Z,101045.83
2019-04-28T02:47:48.069Z,101044.52
2019-04-28T02:53:55.913Z,101056.78
2019-04-28T03:00:01.898Z,101058.10
2019-04-28T03:06:10.238Z,101059.44
2019-04-28T03:12:15.662Z,101055.91
2019-04-28T03:18:21.676Z,101062.46
2019-04-28T03:24:27.739Z,101067.30
2019-04-28T03:31:36.597Z,101073.45
2019-04-28T03:37:15.337Z,101072.09
2019-04-28T03:43:21.452Z,101070.33
2019-04-28T03:49:34.998Z,101070.76
2019-04-28T03:55:41.654Z,101075.13
2019-04-28T04:01:56.698Z,101079.56
2019-04-28T04:07:55.508Z,101083.08
2019-04-28T04:14:12.662Z,101082.66
2019-04-28T04:20:23.739Z,101092.77
2019-04-28T04:26:31.077Z,101082.23
2019-04-28T04:32:37.567Z,101093.23
2019-04-28T04:38:46.221Z,101094.09
2019-04-28T04:44:51.029Z,101092.32
2019-04-28T04:50:57.736Z,101109.01
2019-04-28T04:57:03.876Z,101120.87
2019-04-28T05:03:14.863Z,101117.81
2019-04-28T05:09:20.771Z,101128.80
2019-04-28T05:15:26.739Z,101136.30
2019-04-28T05:21:33.440Z,101137.63
2019-04-28T05:27:39.969Z,101139.83
2019-04-28T05:33:46.047Z,101141.14
2019-04-28T05:39:52.645Z,101149.01
2019-04-28T05:46:00.294Z,101156.95
2019-04-28T05:52:56.723Z,101153.46
2019-04-28T05:59:09.650Z,101158.78
2019-04-28T06:05:15.534Z,101162.75
2019-04-28T06:11:35.572Z,101164.98
2019-04-28T06:17:41.528Z,101166.75
2019-04-28T06:23:48.320Z,101166.78
2019-04-28T06:29:54.218Z,101178.23
2019-04-28T06:36:00.119Z,101179.10
2019-04-28T06:42:06.233Z,101176.91
2019-04-28T06:48:12.011Z,101182.63
2019-04-28T06:54:17.895Z,101186.58
2019-04-28T07:00:23.664Z,101192.31
2019-04-28T07:06:30.177Z,101198.91
2019-04-28T07:12:36.522Z,101197.59
2019-04-28T07:18:42.366Z,101205.94
2019-04-28T07:24:48.897Z,101204.60
2019-04-28T07:30:54.768Z,101213.85
2019-04-28T07:37:00.724Z,101206.36
2019-04-28T07:43:06.979Z,101207.23
2019-04-28T07:49:13.720Z,101208.12
2019-04-28T07:55:19.764Z,101210.32
2019-04-28T08:01:26.350Z,101211.66
2019-04-28T08:07:32.208Z,101224.81
2019-04-28T08:13:38.109Z,101229.63
2019-04-28T08:19:43.895Z,101223.73
2019-04-28T08:25:49.653Z,101214.77
2019-04-28T08:32:02.372Z,101226.22
2019-04-28T08:38:08.216Z,101232.46
2019-04-28T08:44:14.162Z,101237.34
2019-04-28T08:50:20.047Z,101235.55
2019-04-28T08:56:25.831Z,101236.84
2019-04-28T09:02:31.915Z,101241.69
2019-04-28T09:08:39.303Z,101244.43
2019-04-28T09:14:45.176Z,101258.97
2019-04-28T09:20:51.369Z,101259.83
2019-04-28T09:26:57.444Z,101258.05
2019-04-28T09:33:03.418Z,101251.79
2019-04-28T09:39:11.725Z,101252.38
2019-04-28T09:45:20.920Z,101258.70
2019-04-28T09:51:27.079Z,101264.58
2019-04-28T09:57:32.913Z,101260.57
2019-04-28T10:03:39.133Z,101266.48
2019-04-28T10:09:45.033Z,101266.02
2019-04-28T10:15:51.057Z,101274.34
2019-04-28T10:21:56.845Z,101268.38
2019-04-28T10:28:02.658Z,101271.16
2019-04-28T10:34:08.511Z,101269.11
2019-04-28T10:41:13.450Z,101273.70
2019-04-28T10:47:20.934Z,101278.98
2019-04-28T10:53:26.859Z,101263.09
2019-04-28T10:59:32.604Z,101274.75
2019-04-28T11:05:42.425Z,101281.02
2019-04-28T11:11:48.478Z,101274.22
2019-04-28T11:17:54.803Z,101275.88
2019-04-28T11:24:00.555Z,101272.97
2019-04-28T11:30:06.818Z,101286.77
2019-04-28T11:36:41.774Z,101277.29
2019-04-28T11:42:47.547Z,101285.56
2019-04-28T11:48:53.404Z,101278.87
2019-04-28T11:55:01.775Z,101289.22
2019-04-28T12:01:13.088Z,101288.14
2019-04-28T12:07:18.985Z,101289.08
2019-04-28T12:13:44.456Z,101289.00
2019-04-28T12:19:53.501Z,101287.87
2019-04-28T12:25:59.344Z,101289.69
2019-04-28T12:32:05.146Z,101292.66
2019-04-28T12:38:11.041Z,101292.27
2019-04-28T12:44:17.079Z,101308.01
2019-04-28T12:50:30.696Z,101307.59
2019-04-28T12:56:36.867Z,101303.50
2019-04-28T13:03:01.429Z,101309.11
2019-04-28T13:09:08.999Z,101315.12
2019-04-28T13:15:15.113Z,101316.22
2019-04-28T13:21:20.892Z,101323.64
2019-04-28T13:27:26.997Z,101328.75
2019-04-28T13:33:32.901Z,101333.88
2019-04-28T13:39:57.769Z,101338.59
2019-04-28T13:46:03.917Z,101337.31
2019-04-28T13:52:09.713Z,101335.29
2019-04-28T13:58:17.538Z,101342.27
2019-04-28T14:04:41.063Z,101345.55
2019-04-28T14:10:47.537Z,101347.06
2019-04-28T14:16:55.079Z,101343.56
2019-04-28T14:23:00.821Z,101351.98
2019-04-28T14:29:07.208Z,101352.05
2019-04-28T14:35:13.137Z,101357.30
2019-04-28T14:41:18.962Z,101371.08
2019-04-28T14:47:24.753Z,101381.91
2019-04-28T14:53:30.772Z,101383.16
2019-04-28T14:59:36.639Z,101386.35
2019-04-28T15:06:01.335Z,101393.84
2019-04-28T15:12:07.877Z,101385.20
2019-04-28T15:18:13.655Z,101388.80
2019-04-28T15:24:19.581Z,101399.77
2019-04-28T15:30:25.510Z,101401.62
2019-04-28T15:36:31.515Z,101398.20
2019-04-28T15:42:37.220Z,101392.87
2019-04-28T15:48:43.281Z,101394.16
2019-04-28T15:54:49.037Z,101390.81
2019-04-28T16:00:54.844Z,101389.96
2019-04-28T16:07:00.661Z,101390.50
2019-04-28T16:13:06.390Z,101404.15
2019-04-28T16:19:12.385Z,101407.30
2019-04-28T16:25:18.182Z,101401.60
2019-04-28T16:31:23.949Z,101408.65
2019-04-28T16:37:38.728Z,101402.36
2019-04-28T16:43:51.789Z,101413.42
2019-04-28T16:49:57.540Z,101420.02
2019-04-28T16:56:08.895Z,101424.84
2019-04-28T17:02:20.712Z,101438.94
2019-04-28T17:08:26.571Z,101440.73
2019-04-28T17:14:32.337Z,101435.47
2019-04-28T17:20:38.352Z,101443.39
2019-04-28T17:26:44.336Z,101451.26
2019-04-28T17:32:50.245Z,101454.78
2019-04-28T17:38:56.159Z,101459.63
2019-04-28T17:45:01.995Z,101460.02
2019-04-28T17:51:08.194Z,101468.42
2019-04-28T17:57:14.001Z,101476.44
2019-04-28T18:03:26.924Z,101485.78
2019-04-28T18:09:32.924Z,101486.70
2019-04-28T18:15:56.637Z,101489.41
2019-04-28T18:22:02.545Z,101498.20
2019-04-28T18:28:08.972Z,101501.75
2019-04-28T18:34:25.758Z,101515.00
2019-04-28T18:40:56.650Z,101530.83
2019-04-28T18:47:02.874Z,101554.52
2019-04-28T18:53:09.431Z,101562.70
2019-04-28T18:59:15.426Z,101573.22
2019-04-28T19:05:24.040Z,101570.97
2019-04-28T19:11:52.446Z,101584.56
2019-04-28T19:18:17.122Z,101601.98
2019-04-28T19:24:23.448Z,101600.40
2019-04-28T19:30:29.255Z,101614.28
2019-04-28T19:36:35.241Z,101633.87
2019-04-28T19:42:41.229Z,101643.72
2019-04-28T19:48:47.510Z,101647.47
2019-04-28T19:55:15.200Z,101654.70
2019-04-28T20:01:26.530Z,101658.47
2019-04-28T20:07:32.301Z,101654.48
2019-04-28T20:13:38.366Z,101670.15
2019-04-28T20:19:44.592Z,101670.80
2019-04-28T20:25:50.524Z,101677.50
2019-04-28T20:31:56.366Z,101682.50
2019-04-28T20:38:07.713Z,101683.22
2019-04-28T20:44:13.588Z,101687.92
2019-04-28T20:50:19.712Z,101696.09
2019-04-28T20:56:25.578Z,101704.61
2019-04-28T21:02:31.564Z,101707.72
2019-04-28T21:08:37.397Z,101707.28
2019-04-28T21:14:43.370Z,101710.78
2019-04-28T21:20:49.623Z,101713.62
2019-04-28T21:26:55.572Z,101720.47
2019-04-28T21:33:01.726Z,101728.20
2019-04-28T21:39:09.727Z,101722.73
2019-04-28T21:45:37.584Z,101732.66
2019-04-28T21:51:43.528Z,101737.82
2019-04-28T21:57:49.341Z,101726.36
2019-04-28T22:03:55.402Z,101726.05
2019-04-28T22:10:01.178Z,101726.27
2019-04-28T22:16:07.423Z,101729.72
2019-04-28T22:22:13.405Z,101727.52
2019-04-28T22:28:19.246Z,101745.44
2019-04-28T22:34:25.025Z,101744.20
2019-04-28T22:40:31.351Z,101748.03
2019-04-28T22:46:37.645Z,101749.77
2019-04-28T22:52:44.794Z,101767.92
2019-04-28T22:58:55.477Z,101765.84
2019-04-28T23:05:05.019Z,101773.67
2019-04-28T23:11:11.082Z,101772.50
2019-04-28T23:17:18.464Z,101782.81
2019-04-28T23:23:24.814Z,101780.62
2019-04-28T23:29:30.848Z,101792.17
2019-04-28T23:35:36.904Z,101797.83
2019-04-28T23:41:48.644Z,101790.16
2019-04-28T23:47:54.435Z,101795.48
2019-04-28T23:54:03.843Z,101794.68
